createdAt,value
2019-02-18T00:00:51.926Z,14.55
2019-02-18T00:03:22.670Z,15.30
2019-02-18T00:05:51.792Z,16.87
2019-02-18T00:08:20.910Z,16.62
2019-02-18T00:10:50.033Z,13.85
2019-02-18T00:13:20.223Z,17.57
2019-02-18T00:15:49.337Z,15.25
2019-02-18T00:18:18.457Z,17.98
2019-02-18T00:20:47.573Z,19.55
2019-02-18T00:23:16.694Z,14.98
2019-02-18T00:25:45.808Z,14.70
2019-02-18T00:28:14.935Z,14.30
2019-02-18T00:30:44.272Z,13.20
2019-02-18T00:33:13.395Z,15.30
2019-02-18T00:35:42.499Z,13.93
2019-02-18T00:38:11.615Z,15.90
2019-02-18T00:40:40.732Z,15.88
2019-02-18T00:43:09.852Z,13.40
2019-02-18T00:45:38.966Z,21.17
2019-02-18T00:48:08.089Z,15.88
2019-02-18T00:50:37.199Z,16.65
2019-02-18T00:53:06.681Z,14.58
2019-02-18T00:55:35.795Z,14.55
2019-02-18T00:58:04.900Z,16.57
2019-02-18T01:00:34.015Z,16.02
2019-02-18T01:03:03.127Z,15.70
2019-02-18T01:05:32.240Z,14.40
2019-02-18T01:08:01.356Z,13.62
2019-02-18T01:10:30.467Z,12.90
2019-02-18T01:12:59.588Z,14.25
2019-02-18T01:15:28.693Z,16.15
2019-02-18T01:17:57.810Z,17.73
2019-02-18T01:20:26.916Z,17.15
2019-02-18T01:22:56.032Z,15.45
2019-02-18T01:25:25.147Z,15.65
2019-02-18T01:27:54.275Z,15.35
2019-02-18T01:30:23.646Z,14.55
2019-02-18T01:32:52.764Z,16.65
2019-02-18T01:35:22.138Z,16.93
2019-02-18T01:37:51.254Z,13.40
2019-02-18T01:40:20.368Z,14.53
2019-02-18T01:42:49.481Z,13.58
2019-02-18T01:45:18.597Z,16.52
2019-02-18T01:47:47.708Z,14.15
2019-02-18T01:50:16.833Z,15.10
2019-02-18T01:52:46.019Z,15.53
2019-02-18T01:55:15.127Z,12.58
2019-02-18T01:57:45.253Z,16.67
2019-02-18T02:00:16.003Z,17.15
2019-02-18T02:02:45.109Z,15.48
2019-02-18T02:05:17.864Z,13.58
2019-02-18T02:07:55.837Z,15.08
2019-02-18T02:10:17.791Z,15.88
2019-02-18T02:12:47.351Z,15.28
2019-02-18T02:15:27.315Z,15.48
2019-02-18T02:17:56.433Z,15.18
2019-02-18T02:20:25.549Z,18.85
2019-02-18T02:22:59.361Z,14.78
2019-02-18T02:27:56.821Z,17.87
2019-02-18T02:30:25.946Z,17.30
2019-02-18T02:32:55.088Z,13.13
2019-02-18T02:35:24.175Z,15.28
2019-02-18T02:37:53.296Z,18.00
2019-02-18T02:40:22.721Z,15.45
2019-02-18T02:42:52.070Z,17.73
2019-02-18T02:45:21.193Z,15.08
2019-02-18T02:47:50.334Z,13.20
2019-02-18T02:50:19.446Z,14.00
2019-02-18T02:52:48.562Z,17.23
2019-02-18T02:55:18.013Z,12.85
2019-02-18T02:57:47.129Z,15.50
2019-02-18T03:00:16.423Z,14.35
2019-02-18T03:02:45.530Z,15.08
2019-02-18T03:05:14.649Z,17.60
2019-02-18T03:07:43.772Z,14.60
2019-02-18T03:10:13.642Z,14.90
2019-02-18T03:12:42.997Z,13.95
2019-02-18T03:15:16.025Z,15.55
2019-02-18T03:17:45.175Z,14.85
2019-02-18T03:20:14.516Z,15.45
2019-02-18T03:22:43.635Z,16.02
2019-02-18T03:25:19.224Z,15.53
2019-02-18T03:27:51.596Z,13.78
2019-02-18T03:30:40.130Z,14.75
2019-02-18T03:33:16.335Z,17.45
2019-02-18T03:35:45.468Z,17.95
2019-02-18T03:38:14.580Z,13.68
2019-02-18T03:40:43.705Z,14.50
2019-02-18T03:43:13.052Z,14.23
2019-02-18T03:45:43.135Z,17.67
2019-02-18T03:48:12.563Z,14.70
2019-02-18T03:50:41.676Z,14.65
2019-02-18T03:53:11.067Z,14.75
2019-02-18T03:55:40.182Z,15.58
2019-02-18T03:58:09.563Z,13.38
2019-02-18T04:00:38.681Z,16.32
2019-02-18T04:03:07.793Z,12.45
2019-02-18T04:05:36.914Z,14.78
2019-02-18T04:08:06.025Z,15.43
2019-02-18T04:10:35.142Z,13.60
2019-02-18T04:13:04.556Z,13.13
2019-02-18T04:15:33.669Z,14.63
2019-02-18T04:18:02.825Z,14.28
2019-02-18T04:20:31.896Z,12.65
2019-02-18T04:23:01.023Z,14.18
2019-02-18T04:25:30.141Z,17.23
2019-02-18T04:28:00.242Z,16.20
2019-02-18T04:30:29.375Z,14.23
2019-02-18T04:32:58.509Z,13.38
2019-02-18T04:35:27.633Z,15.28
2019-02-18T04:37:56.829Z,15.18
2019-02-18T04:40:25.941Z,15.98
2019-02-18T04:42:55.059Z,15.08
2019-02-18T04:45:24.172Z,15.10
2019-02-18T04:47:53.288Z,15.23
2019-02-18T04:50:22.412Z,14.55
2019-02-18T04:52:51.525Z,14.85
2019-02-18T04:55:20.638Z,16.48
2019-02-18T04:57:49.757Z,16.45
2019-02-18T05:00:19.126Z,11.90
2019-02-18T05:02:48.251Z,12.90
2019-02-18T05:05:18.331Z,16.10
2019-02-18T05:07:47.448Z,13.58
2019-02-18T05:10:16.847Z,14.60
2019-02-18T05:12:45.996Z,13.20
2019-02-18T05:15:15.100Z,14.33
2019-02-18T05:17:44.218Z,13.50
2019-02-18T05:20:13.332Z,19.27
2019-02-18T05:22:42.453Z,18.95
2019-02-18T05:25:13.068Z,13.85
2019-02-18T05:27:43.228Z,15.15
2019-02-18T05:30:12.411Z,11.93
2019-02-18T05:32:41.529Z,15.72
2019-02-18T05:35:10.641Z,13.10
2019-02-18T05:37:39.757Z,14.75
2019-02-18T05:40:08.885Z,15.20
2019-02-18T05:42:38.030Z,16.02
2019-02-18T05:45:08.549Z,13.35
2019-02-18T05:47:37.659Z,13.75
2019-02-18T05:50:08.320Z,12.95
2019-02-18T05:52:37.418Z,13.95
2019-02-18T05:55:06.977Z,13.20
2019-02-18T05:57:36.154Z,15.63
2019-02-18T06:00:10.846Z,16.02
2019-02-18T06:02:39.955Z,12.28
2019-02-18T06:05:09.073Z,16.00
2019-02-18T06:07:38.187Z,16.27
2019-02-18T06:10:08.643Z,12.47
2019-02-18T06:12:37.821Z,12.85
2019-02-18T06:15:09.175Z,13.85
2019-02-18T06:17:38.296Z,12.53
2019-02-18T06:20:08.951Z,15.30
2019-02-18T06:22:38.857Z,15.58
2019-02-18T06:25:08.016Z,15.00
2019-02-18T06:27:37.133Z,17.82
2019-02-18T06:30:09.976Z,16.55
2019-02-18T06:32:39.093Z,14.53
2019-02-18T06:35:09.302Z,13.72
2019-02-18T06:37:38.400Z,16.97
2019-02-18T06:40:08.659Z,16.52
2019-02-18T06:42:37.822Z,15.90
2019-02-18T06:45:11.902Z,14.98
2019-02-18T06:47:41.120Z,17.02
2019-02-18T06:50:10.241Z,15.08
2019-02-18T06:52:39.354Z,19.45
2019-02-18T06:55:08.479Z,18.30
2019-02-18T06:57:39.228Z,16.73
2019-02-18T07:00:10.931Z,13.38
2019-02-18T07:02:41.692Z,16.40
2019-02-18T07:05:12.438Z,16.50
2019-02-18T07:07:46.487Z,14.53
2019-02-18T07:10:17.256Z,14.28
2019-02-18T07:12:47.038Z,17.15
2019-02-18T07:15:16.158Z,12.85
2019-02-18T07:17:45.284Z,15.78
2019-02-18T07:20:14.450Z,15.85
2019-02-18T07:22:43.513Z,16.85
2019-02-18T07:25:12.629Z,15.28
2019-02-18T07:27:41.744Z,19.87
2019-02-18T07:30:12.696Z,15.95
2019-02-18T07:32:41.819Z,14.00
2019-02-18T07:35:10.932Z,13.38
2019-02-18T07:37:40.284Z,17.30
2019-02-18T07:40:10.044Z,19.55
2019-02-18T07:42:39.447Z,17.42
2019-02-18T07:45:09.803Z,15.65
2019-02-18T07:47:38.925Z,13.75
2019-02-18T07:50:19.967Z,16.95
2019-02-18T07:52:40.651Z,18.87
2019-02-18T07:55:09.768Z,17.60
2019-02-18T07:57:39.147Z,13.80
2019-02-18T08:00:11.521Z,20.50
2019-02-18T08:02:40.650Z,13.15
2019-02-18T08:05:09.769Z,13.20
2019-02-18T08:07:38.885Z,14.28
2019-02-18T08:10:12.303Z,18.23
2019-02-18T08:12:41.302Z,16.05
2019-02-18T08:15:10.948Z,13.25
2019-02-18T08:17:40.138Z,15.80
2019-02-18T08:20:10.588Z,14.05
2019-02-18T08:22:39.728Z,15.63
2019-02-18T08:25:13.352Z,16.57
2019-02-18T08:27:42.490Z,13.90
2019-02-18T08:30:14.398Z,14.55
2019-02-18T08:32:43.796Z,15.18
2019-02-18T08:35:13.139Z,14.73
2019-02-18T08:37:42.248Z,13.80
2019-02-18T08:40:11.360Z,14.25
2019-02-18T08:42:40.476Z,13.80
2019-02-18T08:45:11.803Z,14.25
2019-02-18T08:47:41.144Z,16.15
2019-02-18T08:50:11.591Z,13.08
2019-02-18T08:52:40.705Z,13.03
2019-02-18T08:55:11.981Z,20.72
2019-02-18T08:57:41.092Z,14.15
2019-02-18T09:00:13.156Z,14.53
2019-02-18T09:02:42.342Z,16.15
2019-02-18T09:05:11.527Z,14.28
2019-02-18T09:07:40.660Z,16.62
2019-02-18T09:10:11.919Z,14.63
2019-02-18T09:12:41.032Z,16.00
2019-02-18T09:15:11.027Z,14.20
2019-02-18T09:17:40.121Z,15.63
2019-02-18T09:20:10.886Z,14.40
2019-02-18T09:22:41.639Z,17.48
2019-02-18T09:25:18.654Z,12.47
2019-02-18T09:27:49.644Z,18.00
2019-02-18T09:30:20.696Z,17.27
2019-02-18T09:32:49.809Z,14.60
2019-02-18T09:35:19.903Z,17.65
2019-02-18T09:37:49.996Z,17.77
2019-02-18T09:40:19.112Z,15.15
2019-02-18T09:42:48.226Z,16.27
2019-02-18T09:45:17.337Z,18.40
2019-02-18T09:47:46.451Z,20.10
2019-02-18T09:50:15.567Z,17.90
2019-02-18T09:52:44.688Z,13.88
2019-02-18T09:55:13.804Z,18.17
2019-02-18T09:57:44.254Z,18.45
2019-02-18T10:00:13.449Z,19.62
2019-02-18T10:02:42.583Z,17.95
2019-02-18T10:05:11.698Z,15.75
2019-02-18T10:07:40.820Z,19.27
2019-02-18T10:10:10.828Z,16.93
2019-02-18T10:12:39.941Z,19.70
2019-02-18T10:15:10.693Z,13.65
2019-02-18T10:17:39.887Z,15.78
2019-02-18T10:20:11.035Z,21.07
2019-02-18T10:22:40.158Z,14.70
2019-02-18T10:25:11.881Z,15.58
2019-02-18T10:27:41.018Z,15.18
2019-02-18T10:30:10.883Z,17.77
2019-02-18T10:32:40.057Z,20.62
2019-02-18T10:35:14.722Z,17.40
2019-02-18T10:37:43.850Z,21.02
2019-02-18T10:40:12.971Z,17.90
2019-02-18T10:42:42.430Z,19.30
2019-02-18T10:45:12.888Z,15.23
2019-02-18T10:47:42.015Z,14.33
2019-02-18T10:50:12.474Z,16.70
2019-02-18T10:52:41.598Z,18.80
2019-02-18T10:55:11.596Z,17.35
2019-02-18T10:57:41.053Z,17.75
2019-02-18T11:00:15.474Z,17.70
2019-02-18T11:02:44.857Z,22.93
2019-02-18T11:05:14.233Z,18.55
2019-02-18T11:07:43.681Z,19.25
2019-02-18T11:10:14.514Z,20.30
2019-02-18T11:12:43.631Z,21.33
2019-02-18T11:15:13.800Z,20.02
2019-02-18T11:17:43.208Z,24.20
2019-02-18T11:20:13.175Z,22.05
2019-02-18T11:22:42.615Z,17.40
2019-02-18T11:25:12.856Z,21.17
2019-02-18T11:27:42.241Z,18.10
2019-02-18T11:30:15.528Z,20.57
2019-02-18T11:32:44.667Z,20.15
2019-02-18T11:35:13.833Z,20.43
2019-02-18T11:37:42.957Z,21.45
2019-02-18T11:40:17.268Z,20.00
2019-02-18T11:42:46.437Z,23.18
2019-02-18T11:45:16.600Z,19.90
2019-02-18T11:47:45.721Z,21.73
2019-02-18T11:50:15.221Z,19.60
2019-02-18T11:52:44.345Z,19.65
2019-02-18T11:55:14.207Z,19.50
2019-02-18T11:57:43.615Z,23.07
2019-02-18T12:00:16.226Z,21.12
2019-02-18T12:02:45.392Z,18.12
2019-02-18T12:05:14.528Z,20.43
2019-02-18T12:07:43.656Z,17.10
2019-02-18T12:10:13.713Z,19.35
2019-02-18T12:12:43.019Z,17.02
2019-02-18T12:15:15.857Z,19.75
2019-02-18T12:17:44.987Z,17.77
2019-02-18T12:20:14.852Z,18.30
2019-02-18T12:22:43.985Z,18.92
2019-02-18T12:25:13.528Z,19.37
2019-02-18T12:27:43.059Z,17.80
2019-02-18T12:30:14.033Z,16.30
2019-02-18T12:32:43.158Z,17.32
2019-02-18T12:35:12.276Z,16.40
2019-02-18T12:37:41.431Z,16.00
2019-02-18T12:40:11.895Z,18.57
2019-02-18T12:42:42.419Z,16.60
2019-02-18T12:45:12.221Z,20.10
2019-02-18T12:47:41.699Z,16.87
2019-02-18T12:50:11.756Z,16.85
2019-02-18T12:52:41.134Z,18.65
2019-02-18T12:55:11.373Z,15.35
2019-02-18T12:57:41.052Z,19.62
2019-02-18T13:00:13.790Z,15.90
2019-02-18T13:02:44.951Z,14.45
2019-02-18T13:05:14.845Z,17.35
2019-02-18T13:07:43.990Z,21.05
2019-02-18T13:10:14.083Z,20.45
2019-02-18T13:12:43.485Z,15.30
2019-02-18T13:15:17.151Z,15.38
2019-02-18T13:17:46.306Z,20.72
2019-02-18T13:20:15.436Z,20.75
2019-02-18T13:22:44.559Z,17.10
2019-02-18T13:25:13.683Z,16.73
2019-02-18T13:27:42.864Z,15.90
2019-02-18T13:30:14.892Z,22.10
2019-02-18T13:32:44.095Z,17.20
2019-02-18T13:35:13.220Z,19.55
2019-02-18T13:37:43.741Z,20.27
2019-02-18T13:40:14.765Z,17.05
2019-02-18T13:42:44.173Z,17.55
2019-02-18T13:45:13.326Z,16.62
2019-02-18T13:47:42.415Z,19.07
2019-02-18T13:50:12.478Z,21.05
2019-02-18T13:52:41.612Z,17.40
2019-02-18T13:55:12.143Z,15.00
2019-02-18T13:57:41.727Z,17.55
2019-02-18T14:00:18.255Z,17.48
2019-02-18T14:02:47.616Z,16.70
2019-02-18T14:05:18.738Z,15.72
2019-02-18T14:07:47.855Z,15.13
2019-02-18T14:10:17.254Z,17.65
2019-02-18T14:12:46.383Z,15.83
2019-02-18T14:15:15.780Z,15.40
2019-02-18T14:17:44.894Z,15.20
2019-02-18T14:20:14.758Z,14.05
2019-02-18T14:22:43.884Z,14.05
2019-02-18T14:25:13.779Z,12.37
2019-02-18T14:27:42.971Z,13.22
2019-02-18T14:30:17.048Z,12.95
2019-02-18T14:32:46.165Z,14.25
2019-02-18T14:35:17.104Z,13.43
2019-02-18T14:37:46.337Z,14.60
2019-02-18T14:40:17.508Z,16.87
2019-02-18T14:42:46.863Z,14.58
2019-02-18T14:45:16.002Z,14.90
2019-02-18T14:47:45.351Z,15.65
2019-02-18T14:50:17.570Z,16.32
2019-02-18T14:52:46.973Z,12.57
2019-02-18T14:55:16.091Z,13.60
2019-02-18T14:57:45.205Z,14.55
2019-02-18T15:00:23.851Z,13.58
2019-02-18T15:02:54.800Z,14.10
2019-02-18T15:05:25.197Z,20.45
2019-02-18T15:07:54.319Z,18.23
2019-02-18T15:10:23.686Z,17.20
2019-02-18T15:12:52.944Z,19.15
2019-02-18T15:15:22.094Z,15.63
2019-02-18T15:17:51.478Z,16.15
2019-02-18T15:20:21.229Z,14.28
2019-02-18T15:22:50.510Z,15.98
2019-02-18T15:25:19.869Z,19.82
2019-02-18T15:27:50.194Z,18.32
2019-02-18T15:30:19.594Z,14.63
2019-02-18T15:32:48.778Z,14.83
2019-02-18T15:35:18.088Z,19.62
2019-02-18T15:37:47.532Z,19.50
2019-02-18T15:40:17.675Z,14.63
2019-02-18T15:42:46.980Z,19.40
2019-02-18T15:45:16.121Z,20.37
2019-02-18T15:47:45.523Z,17.52
2019-02-18T15:50:15.068Z,18.05
2019-02-18T15:52:44.192Z,19.00
2019-02-18T15:55:13.325Z,20.45
2019-02-18T15:57:42.689Z,21.07
2019-02-18T16:00:23.589Z,19.70
2019-02-18T16:02:52.711Z,18.32
2019-02-18T16:05:21.887Z,23.30
2019-02-18T16:07:51.637Z,18.65
2019-02-18T16:10:21.262Z,18.45
2019-02-18T16:12:51.198Z,23.05
2019-02-18T16:15:21.698Z,22.62
2019-02-18T16:17:50.824Z,21.35
2019-02-18T16:20:20.064Z,24.77
2019-02-18T16:22:49.182Z,24.07
2019-02-18T16:25:20.858Z,16.82
2019-02-18T16:27:49.985Z,16.87
2019-02-18T16:30:19.139Z,20.85
2019-02-18T16:32:48.267Z,21.77
2019-02-18T16:35:17.396Z,29.02
2019-02-18T16:37:46.754Z,20.65
2019-02-18T16:40:17.624Z,21.95
2019-02-18T16:42:46.762Z,23.35
2019-02-18T16:45:15.909Z,23.77
2019-02-18T16:47:45.113Z,19.98
2019-02-18T16:50:14.222Z,23.40
2019-02-18T16:52:43.720Z,23.32
2019-02-18T16:55:14.280Z,28.47
2019-02-18T16:57:43.437Z,33.95
2019-02-18T17:00:29.501Z,26.85
2019-02-18T17:02:58.756Z,21.10
2019-02-18T17:05:28.214Z,21.17
2019-02-18T17:07:57.337Z,19.67
2019-02-18T17:10:30.597Z,15.45
2019-02-18T17:13:07.637Z,16.85
2019-02-18T17:15:30.789Z,18.77
2019-02-18T17:18:01.181Z,19.48
2019-02-18T17:20:30.454Z,18.87
2019-02-18T17:22:59.585Z,12.55
2019-02-18T17:25:28.985Z,17.20
2019-02-18T17:27:58.106Z,13.95
2019-02-18T17:30:27.470Z,11.63
2019-02-18T17:32:56.882Z,11.28
2019-02-18T17:35:26.001Z,14.87
2019-02-18T17:37:55.480Z,13.58
2019-02-18T17:40:25.004Z,14.95
2019-02-18T17:42:54.114Z,27.32
2019-02-18T17:45:23.233Z,24.35
2019-02-18T17:47:52.374Z,28.07
2019-02-18T17:50:21.499Z,26.25
2019-02-18T17:52:50.631Z,23.80
2019-02-18T17:55:20.129Z,26.27
2019-02-18T17:57:49.303Z,29.20
2019-02-18T18:00:24.979Z,24.47
2019-02-18T18:02:55.173Z,31.10
2019-02-18T18:05:24.306Z,31.48
2019-02-18T18:07:53.518Z,37.38
2019-02-18T18:10:22.708Z,27.00
2019-02-18T18:12:51.830Z,33.45
2019-02-18T18:15:20.959Z,26.75
2019-02-18T18:17:50.077Z,31.27
2019-02-18T18:20:19.204Z,20.70
2019-02-18T18:22:48.321Z,21.48
2019-02-18T18:25:17.741Z,20.75
2019-02-18T18:27:46.858Z,22.70
2019-02-18T18:30:19.378Z,24.37
2019-02-18T18:32:48.514Z,17.02
2019-02-18T18:35:17.664Z,15.00
2019-02-18T18:37:46.783Z,18.80
2019-02-18T18:40:20.388Z,19.02
2019-02-18T18:42:49.506Z,18.60
2019-02-18T18:45:18.628Z,13.38
2019-02-18T18:47:47.822Z,14.20
2019-02-18T18:50:21.562Z,13.45
2019-02-18T18:55:19.030Z,18.80
2019-02-18T18:57:48.183Z,19.00
2019-02-18T19:00:21.191Z,18.80
2019-02-18T19:02:50.406Z,12.28
2019-02-18T19:05:19.971Z,16.27
2019-02-18T19:07:49.090Z,19.57
2019-02-18T19:10:18.445Z,17.40
2019-02-18T19:12:47.574Z,19.77
2019-02-18T19:15:18.043Z,13.48
2019-02-18T19:17:47.162Z,18.85
2019-02-18T19:20:16.463Z,14.07
2019-02-18T19:22:45.581Z,16.27
2019-02-18T19:25:14.989Z,14.00
2019-02-18T19:27:44.110Z,13.55
2019-02-18T19:30:21.844Z,15.90
2019-02-18T19:32:51.145Z,15.00
2019-02-18T19:35:20.590Z,15.32
2019-02-18T19:37:49.707Z,13.43
2019-02-18T19:40:18.841Z,14.93
2019-02-18T19:42:47.965Z,16.75
2019-02-18T19:45:19.131Z,15.00
2019-02-18T19:47:49.318Z,17.48
2019-02-18T19:50:18.485Z,17.80
2019-02-18T19:52:47.607Z,15.98
2019-02-18T19:55:16.737Z,16.40
2019-02-18T19:57:45.859Z,13.95
2019-02-18T20:00:17.555Z,13.30
2019-02-18T20:02:47.003Z,12.82
2019-02-18T20:05:16.130Z,15.13
2019-02-18T20:07:45.248Z,15.55
2019-02-18T20:10:14.370Z,15.50
2019-02-18T20:12:43.738Z,19.42
2019-02-18T20:15:14.265Z,13.88
2019-02-18T20:17:43.391Z,12.70
2019-02-18T20:20:13.948Z,12.43
2019-02-18T20:22:43.098Z,16.90
2019-02-18T20:25:13.166Z,13.98
2019-02-18T20:27:42.520Z,17.20
2019-02-18T20:30:17.624Z,14.70
2019-02-18T20:32:46.751Z,15.55
2019-02-18T20:35:15.979Z,17.17
2019-02-18T20:37:45.066Z,14.40
2019-02-18T20:40:14.413Z,13.48
2019-02-18T20:42:44.027Z,16.90
2019-02-18T20:45:13.885Z,19.20
2019-02-18T20:47:43.337Z,14.87
2019-02-18T20:50:14.567Z,14.15
2019-02-18T20:52:43.687Z,17.90
2019-02-18T20:55:15.835Z,16.95
2019-02-18T20:57:44.963Z,13.83
2019-02-18T21:00:18.768Z,14.47
2019-02-18T21:05:16.551Z,12.85
2019-02-18T21:07:45.694Z,13.60
2019-02-18T21:10:16.834Z,16.37
2019-02-18T21:12:45.969Z,13.93
2019-02-18T21:15:15.086Z,12.75
2019-02-18T21:17:44.214Z,15.35
2019-02-18T21:20:14.172Z,13.13
2019-02-18T21:22:43.324Z,13.80
2019-02-18T21:25:12.436Z,15.83
2019-02-18T21:27:41.566Z,17.45
2019-02-18T21:30:14.867Z,17.52
2019-02-18T21:32:44.218Z,15.30
2019-02-18T21:35:14.313Z,14.55
2019-02-18T21:37:43.707Z,15.00
2019-02-18T21:40:12.835Z,15.13
2019-02-18T21:42:41.960Z,16.23
2019-02-18T21:45:12.930Z,12.60
2019-02-18T21:47:42.040Z,15.20
2019-02-18T21:50:11.806Z,17.25
2019-02-18T21:52:41.210Z,15.48
2019-02-18T21:55:11.375Z,15.20
2019-02-18T21:57:40.727Z,14.98
2019-02-18T22:00:14.581Z,14.25
2019-02-18T22:02:43.768Z,15.13
2019-02-18T22:05:12.964Z,14.63
2019-02-18T22:07:43.046Z,15.43
2019-02-18T22:10:12.168Z,14.35
2019-02-18T22:12:41.287Z,14.28
2019-02-18T22:15:12.494Z,15.28
2019-02-18T22:17:41.607Z,15.95
2019-02-18T22:20:11.661Z,13.88
2019-02-18T22:22:41.098Z,13.88
2019-02-18T22:25:12.132Z,14.95
2019-02-18T22:27:41.245Z,13.15
2019-02-18T22:30:15.205Z,17.62
2019-02-18T22:32:45.301Z,16.62
2019-02-18T22:35:14.783Z,16.05
2019-02-18T22:37:43.902Z,15.50
2019-02-18T22:40:13.374Z,13.00
2019-02-18T22:42:42.493Z,15.13
2019-02-18T22:45:12.195Z,15.25
2019-02-18T22:47:41.306Z,15.48
2019-02-18T22:50:11.956Z,12.93
2019-02-18T22:52:41.065Z,14.25
2019-02-18T22:55:10.957Z,13.83
2019-02-18T22:57:40.063Z,13.78
2019-02-18T23:00:26.026Z,15.15
2019-02-18T23:02:57.106Z,13.35
2019-02-18T23:05:26.226Z,14.30
2019-02-18T23:07:55.343Z,14.63
2019-02-18T23:10:24.629Z,15.45
2019-02-18T23:12:53.746Z,14.28
2019-02-18T23:15:22.873Z,14.78
2019-02-18T23:17:51.986Z,13.58
2019-02-18T23:20:21.104Z,14.73
2019-02-18T23:22:50.545Z,17.67
2019-02-18T23:25:19.677Z,15.20
2019-02-18T23:27:48.789Z,16.05
2019-02-18T23:30:17.939Z,14.13
2019-02-18T23:32:47.304Z,13.08
2019-02-18T23:35:16.597Z,10.95
2019-02-18T23:37:45.718Z,19.37
2019-02-18T23:40:14.836Z,19.10
2019-02-18T23:42:43.948Z,15.18
2019-02-18T23:45:13.062Z,14.80
2019-02-18T23:47:42.184Z,13.58
2019-02-18T23:50:11.295Z,15.28
2019-02-18T23:52:40.419Z,14.25
2019-02-18T23:55:09.541Z,15.98
2019-02-18T23:57:38.660Z,16.32
